sensor_id;sensor_type;location;lat;lon;timestamp;pressure;altitude;pressure_sealevel;temperature;humidity
41690;BME280;27372;42.658;23.256;2023-08-01T00:00:43;93533.66;;;20.83;73.51
41690;BME280;27372;42.658;23.256;2023-08-01T00:03:08;93526.00;;;20.67;76.45
41690;BME280;27372;42.658;23.256;2023-08-01T00:05:39;93532.25;;;20.85;75.58
41690;BME280;27372;42.658;23.256;2023-08-01T00:08:21;93524.06;;;20.82;75.60
41690;BME280;27372;42.658;23.256;2023-08-01T00:10:55;93521.72;;;20.80;73.89
41690;BME280;27372;42.658;23.256;2023-08-01T00:13:20;93532.81;;;21.05;74.44
41690;BME280;27372;42.658;23.256;2023-08-01T00:15:46;93532.22;;;21.17;75.79
41690;BME280;27372;42.658;23.256;2023-08-01T00:18:12;93528.09;;;21.02;73.35
41690;BME280;27372;42.658;23.256;2023-08-01T00:20:37;93527.03;;;20.80;74.12
41690;BME280;27372;42.658;23.256;2023-08-01T00:23:04;93526.19;;;20.93;74.47
41690;BME280;27372;42.658;23.256;2023-08-01T00:25:33;93519.00;;;21.03;72.58
41690;BME280;27372;42.658;23.256;2023-08-01T00:27:58;93523.34;;;20.90;72.59
41690;BME280;27372;42.658;23.256;2023-08-01T00:30:24;93536.97;;;20.88;71.68
41690;BME280;27372;42.658;23.256;2023-08-01T00:32:49;93531.59;;;20.79;72.44
41690;BME280;27372;42.658;23.256;2023-08-01T00:35:15;93523.78;;;20.92;75.33
41690;BME280;27372;42.658;23.256;2023-08-01T00:37:41;93526.03;;;20.99;73.92
41690;BME280;27372;42.658;23.256;2023-08-01T00:40:07;93525.81;;;21.18;73.39
41690;BME280;27372;42.658;23.256;2023-08-01T00:42:36;93528.41;;;21.00;71.17
41690;BME280;27372;42.658;23.256;2023-08-01T00:45:02;93533.69;;;20.91;71.94
41690;BME280;27372;42.658;23.256;2023-08-01T00:47:27;93530.00;;;21.10;76.11
41690;BME280;27372;42.658;23.256;2023-08-01T00:49:53;93522.69;;;21.24;74.84
41690;BME280;27372;42.658;23.256;2023-08-01T00:52:18;93524.81;;;21.05;72.25
41690;BME280;27372;42.658;23.256;2023-08-01T00:54:44;93522.31;;;21.08;71.69
41690;BME280;27372;42.658;23.256;2023-08-01T00:57:09;93519.69;;;20.86;72.31
41690;BME280;27372;42.658;23.256;2023-08-01T00:59:35;93519.13;;;20.43;73.34
41690;BME280;27372;42.658;23.256;2023-08-01T01:02:00;93516.44;;;20.66;75.56
41690;BME280;27372;42.658;23.256;2023-08-01T01:04:26;93515.19;;;20.72;73.20
41690;BME280;27372;42.658;23.256;2023-08-01T01:07:02;93514.75;;;20.70;72.68
41690;BME280;27372;42.658;23.256;2023-08-01T01:09:29;93508.91;;;20.68;72.78
41690;BME280;27372;42.658;23.256;2023-08-01T01:11:58;93514.09;;;20.73;75.34
41690;BME280;27372;42.658;23.256;2023-08-01T01:14:27;93513.31;;;20.96;75.75
41690;BME280;27372;42.658;23.256;2023-08-01T01:16:53;93502.66;;;20.96;75.35
41690;BME280;27372;42.658;23.256;2023-08-01T01:19:18;93503.19;;;21.15;73.90
41690;BME280;27372;42.658;23.256;2023-08-01T01:21:43;93499.19;;;20.72;73.60
41690;BME280;27372;42.658;23.256;2023-08-01T01:24:10;93497.53;;;20.54;75.04
41690;BME280;27372;42.658;23.256;2023-08-01T01:26:37;93502.16;;;19.80;76.69
41690;BME280;27372;42.658;23.256;2023-08-01T01:29:03;93500.75;;;19.46;76.32
41690;BME280;27372;42.658;23.256;2023-08-01T01:31:30;93499.00;;;19.27;77.30
41690;BME280;27372;42.658;23.256;2023-08-01T01:33:55;93503.03;;;19.38;79.06
41690;BME280;27372;42.658;23.256;2023-08-01T01:36:23;93496.59;;;19.53;76.47
41690;BME280;27372;42.658;23.256;2023-08-01T01:38:49;93498.41;;;19.81;78.26
41690;BME280;27372;42.658;23.256;2023-08-01T01:41:14;93495.66;;;19.86;76.61
41690;BME280;27372;42.658;23.256;2023-08-01T01:43:40;93495.41;;;19.96;75.31
41690;BME280;27372;42.658;23.256;2023-08-01T01:46:06;93493.75;;;20.00;75.26
41690;BME280;27372;42.658;23.256;2023-08-01T01:48:31;93487.66;;;19.86;74.41
41690;BME280;27372;42.658;23.256;2023-08-01T01:50:56;93495.13;;;19.61;75.27
41690;BME280;27372;42.658;23.256;2023-08-01T01:53:22;93495.59;;;19.63;73.78
41690;BME280;27372;42.658;23.256;2023-08-01T01:55:47;93501.81;;;19.73;75.40
41690;BME280;27372;42.658;23.256;2023-08-01T01:58:12;93500.56;;;19.93;76.34
41690;BME280;27372;42.658;23.256;2023-08-01T02:00:38;93493.38;;;19.93;74.29
41690;BME280;27372;42.658;23.256;2023-08-01T02:03:03;93501.31;;;20.07;73.70
41690;BME280;27372;42.658;23.256;2023-08-01T02:05:29;93495.25;;;19.79;76.30
41690;BME280;27372;42.658;23.256;2023-08-01T02:07:54;93501.25;;;19.98;75.26
41690;BME280;27372;42.658;23.256;2023-08-01T02:10:20;93498.09;;;19.96;74.52
41690;BME280;27372;42.658;23.256;2023-08-01T02:12:45;93491.66;;;19.97;73.12
41690;BME280;27372;42.658;23.256;2023-08-01T02:15:10;93498.84;;;20.33;76.87
41690;BME280;27372;42.658;23.256;2023-08-01T02:17:36;93493.13;;;20.26;74.86
41690;BME280;27372;42.658;23.256;2023-08-01T02:20:01;93503.13;;;20.21;70.70
41690;BME280;27372;42.658;23.256;2023-08-01T02:22:27;93492.63;;;20.47;74.97
41690;BME280;27372;42.658;23.256;2023-08-01T02:24:53;93496.75;;;20.53;75.01
41690;BME280;27372;42.658;23.256;2023-08-01T02:27:18;93493.97;;;19.90;72.02
41690;BME280;27372;42.658;23.256;2023-08-01T02:29:44;93485.97;;;19.90;71.51
41690;BME280;27372;42.658;23.256;2023-08-01T02:32:09;93488.41;;;20.00;74.81
41690;BME280;27372;42.658;23.256;2023-08-01T02:34:34;93501.13;;;20.04;70.53
41690;BME280;27372;42.658;23.256;2023-08-01T02:37:00;93490.47;;;20.26;70.29
41690;BME280;27372;42.658;23.256;2023-08-01T02:39:28;93496.75;;;20.08;67.62
41690;BME280;27372;42.658;23.256;2023-08-01T02:41:59;93486.53;;;20.01;68.13
41690;BME280;27372;42.658;23.256;2023-08-01T02:44:25;93486.00;;;20.13;67.43
41690;BME280;27372;42.658;23.256;2023-08-01T02:46:51;93493.66;;;19.92;67.95
41690;BME280;27372;42.658;23.256;2023-08-01T02:49:16;93490.47;;;20.26;72.17
41690;BME280;27372;42.658;23.256;2023-08-01T02:51:41;93497.25;;;20.10;68.48
41690;BME280;27372;42.658;23.256;2023-08-01T02:54:10;93490.69;;;19.79;69.09
41690;BME280;27372;42.658;23.256;2023-08-01T02:56:35;93492.72;;;19.60;69.64
41690;BME280;27372;42.658;23.256;2023-08-01T02:59:06;93496.34;;;19.78;69.49
41690;BME280;27372;42.658;23.256;2023-08-01T03:01:37;93493.16;;;19.90;71.71
41690;BME280;27372;42.658;23.256;2023-08-01T03:04:03;93502.31;;;19.97;73.16
41690;BME280;27372;42.658;23.256;2023-08-01T03:06:30;93487.09;;;20.12;73.60
41690;BME280;27372;42.658;23.256;2023-08-01T03:08:55;93496.16;;;20.11;71.35
41690;BME280;27372;42.658;23.256;2023-08-01T03:11:20;93490.66;;;20.07;73.02
41690;BME280;27372;42.658;23.256;2023-08-01T03:13:46;93495.38;;;20.10;71.22
41690;BME280;27372;42.658;23.256;2023-08-01T03:16:11;93495.09;;;20.12;69.79
41690;BME280;27372;42.658;23.256;2023-08-01T03:18:36;93494.78;;;20.13;70.95
41690;BME280;27372;42.658;23.256;2023-08-01T03:21:02;93490.69;;;19.79;68.80
41690;BME280;27372;42.658;23.256;2023-08-01T03:23:29;93497.91;;;19.93;72.75
41690;BME280;27372;42.658;23.256;2023-08-01T03:25:54;93504.47;;;20.09;71.38
41690;BME280;27372;42.658;23.256;2023-08-01T03:28:19;93497.34;;;20.05;72.16
41690;BME280;27372;42.658;23.256;2023-08-01T03:30:45;93497.53;;;19.21;73.68
41690;BME280;27372;42.658;23.256;2023-08-01T03:33:10;93498.00;;;19.23;76.85
41690;BME280;27372;42.658;23.256;2023-08-01T03:35:36;93494.94;;;19.44;76.15
41690;BME280;27372;42.658;23.256;2023-08-01T03:38:01;93505.38;;;19.54;74.36
41690;BME280;27372;42.658;23.256;2023-08-01T03:40:26;93501.47;;;19.09;74.60
41690;BME280;27372;42.658;23.256;2023-08-01T03:42:52;93504.63;;;19.12;72.35
41690;BME280;27372;42.658;23.256;2023-08-01T03:45:17;93502.69;;;18.56;74.95
41690;BME280;27372;42.658;23.256;2023-08-01T03:47:43;93497.47;;;18.65;72.35
41690;BME280;27372;42.658;23.256;2023-08-01T03:50:08;93505.06;;;18.86;73.45
41690;BME280;27372;42.658;23.256;2023-08-01T03:52:34;93507.22;;;18.70;72.03
41690;BME280;27372;42.658;23.256;2023-08-01T03:54:59;93495.31;;;18.81;72.47
41690;BME280;27372;42.658;23.256;2023-08-01T03:57:24;93504.91;;;18.49;72.94
41690;BME280;27372;42.658;23.256;2023-08-01T03:59:50;93502.88;;;18.60;72.18
41690;BME280;27372;42.658;23.256;2023-08-01T04:02:15;93501.47;;;18.96;71.94
41690;BME280;27372;42.658;23.256;2023-08-01T04:04:40;93503.56;;;19.27;70.24
41690;BME280;27372;42.658;23.256;2023-08-01T04:07:07;93500.88;;;19.40;71.58
41690;BME280;27372;42.658;23.256;2023-08-01T04:09:32;93504.97;;;19.61;73.28
41690;BME280;27372;42.658;23.256;2023-08-01T04:11:57;93491.16;;;19.59;70.62
41690;BME280;27372;42.658;23.256;2023-08-01T04:14:23;93507.38;;;19.99;74.15
41690;BME280;27372;42.658;23.256;2023-08-01T04:16:48;93502.41;;;20.29;71.45
41690;BME280;27372;42.658;23.256;2023-08-01T04:19:13;93504.94;;;19.75;69.01
41690;BME280;27372;42.658;23.256;2023-08-01T04:21:39;93500.34;;;19.52;71.78
41690;BME280;27372;42.658;23.256;2023-08-01T04:24:05;93500.69;;;21.19;78.26
41690;BME280;27372;42.658;23.256;2023-08-01T04:26:30;93508.06;;;21.80;73.11
41690;BME280;27372;42.658;23.256;2023-08-01T04:28:55;93514.50;;;22.49;70.18
41690;BME280;27372;42.658;23.256;2023-08-01T04:31:21;93513.63;;;22.92;68.15
41690;BME280;27372;42.658;23.256;2023-08-01T04:33:46;93506.34;;;23.40;62.77
41690;BME280;27372;42.658;23.256;2023-08-01T04:36:11;93517.47;;;22.65;64.21
41690;BME280;27372;42.658;23.256;2023-08-01T04:38:37;93516.88;;;21.89;63.21
41690;BME280;27372;42.658;23.256;2023-08-01T04:41:02;93523.44;;;21.65;69.28
41690;BME280;27372;42.658;23.256;2023-08-01T04:43:28;93516.06;;;21.71;63.94
41690;BME280;27372;42.658;23.256;2023-08-01T04:45:53;93510.09;;;21.83;63.37
41690;BME280;27372;42.658;23.256;2023-08-01T04:48:19;93510.72;;;21.88;62.86
41690;BME280;27372;42.658;23.256;2023-08-01T04:50:45;93509.72;;;21.58;64.02
41690;BME280;27372;42.658;23.256;2023-08-01T04:53:13;93511.09;;;21.29;65.16
41690;BME280;27372;42.658;23.256;2023-08-01T04:55:39;93509.91;;;21.13;65.84
41690;BME280;27372;42.658;23.256;2023-08-01T04:58:06;93511.59;;;21.00;66.63
41690;BME280;27372;42.658;23.256;2023-08-01T05:00:34;93513.72;;;21.20;66.35
41690;BME280;27372;42.658;23.256;2023-08-01T05:03:02;93510.22;;;21.11;66.59
41690;BME280;27372;42.658;23.256;2023-08-01T05:05:28;93515.28;;;21.21;66.93
41690;BME280;27372;42.658;23.256;2023-08-01T05:07:53;93503.34;;;21.28;66.10
41690;BME280;27372;42.658;23.256;2023-08-01T05:10:18;93504.00;;;21.24;66.09
41690;BME280;27372;42.658;23.256;2023-08-01T05:12:44;93511.94;;;21.07;66.65
41690;BME280;27372;42.658;23.256;2023-08-01T05:15:09;93514.97;;;21.23;66.63
41690;BME280;27372;42.658;23.256;2023-08-01T05:17:34;93517.81;;;21.26;66.02
41690;BME280;27372;42.658;23.256;2023-08-01T05:20:00;93508.69;;;21.28;66.32
41690;BME280;27372;42.658;23.256;2023-08-01T05:22:25;93514.69;;;21.33;66.01
41690;BME280;27372;42.658;23.256;2023-08-01T05:24:51;93512.94;;;21.20;67.50
41690;BME280;27372;42.658;23.256;2023-08-01T05:27:17;93524.25;;;22.18;74.37
41690;BME280;27372;42.658;23.256;2023-08-01T05:29:42;93522.94;;;23.34;69.10
41690;BME280;27372;42.658;23.256;2023-08-01T05:32:08;93521.72;;;24.03;66.01
41690;BME280;27372;42.658;23.256;2023-08-01T05:34:33;93527.19;;;24.71;63.06
41690;BME280;27372;42.658;23.256;2023-08-01T05:36:58;93521.56;;;25.22;61.25
41690;BME280;27372;42.658;23.256;2023-08-01T05:39:24;93521.94;;;25.57;60.21
41690;BME280;27372;42.658;23.256;2023-08-01T05:41:49;93517.28;;;25.95;58.48
41690;BME280;27372;42.658;23.256;2023-08-01T05:44:15;93514.50;;;26.32;57.38
41690;BME280;27372;42.658;23.256;2023-08-01T05:46:41;93524.88;;;26.46;56.27
41690;BME280;27372;42.658;23.256;2023-08-01T05:49:06;93522.81;;;26.56;55.64
41690;BME280;27372;42.658;23.256;2023-08-01T05:51:32;93510.78;;;26.65;55.76
41690;BME280;27372;42.658;23.256;2023-08-01T05:53:57;93515.38;;;26.93;53.22
41690;BME280;27372;42.658;23.256;2023-08-01T05:56:22;93514.06;;;26.87;52.27
41690;BME280;27372;42.658;23.256;2023-08-01T05:58:48;93516.34;;;27.01;53.07
41690;BME280;27372;42.658;23.256;2023-08-01T06:01:17;93515.63;;;26.88;52.40
41690;BME280;27372;42.658;23.256;2023-08-01T06:03:42;93518.66;;;26.87;52.29
41690;BME280;27372;42.658;23.256;2023-08-01T06:06:08;93513.09;;;26.79;51.78
41690;BME280;27372;42.658;23.256;2023-08-01T06:08:33;93516.06;;;26.90;52.63
41690;BME280;27372;42.658;23.256;2023-08-01T06:10:58;93507.13;;;27.02;51.45
41690;BME280;27372;42.658;23.256;2023-08-01T06:13:24;93513.59;;;26.12;46.75
41690;BME280;27372;42.658;23.256;2023-08-01T06:15:49;93512.13;;;25.90;53.07
41690;BME280;27372;42.658;23.256;2023-08-01T06:18:14;93506.50;;;26.08;53.20
41690;BME280;27372;42.658;23.256;2023-08-01T06:20:40;93509.56;;;26.34;54.08
41690;BME280;27372;42.658;23.256;2023-08-01T06:23:08;93509.72;;;26.54;52.71
41690;BME280;27372;42.658;23.256;2023-08-01T06:25:34;93509.75;;;26.70;48.56
41690;BME280;27372;42.658;23.256;2023-08-01T06:28:02;93506.63;;;26.68;52.52
41690;BME280;27372;42.658;23.256;2023-08-01T06:30:27;93508.28;;;26.73;51.81
41690;BME280;27372;42.658;23.256;2023-08-01T06:32:53;93509.13;;;26.61;51.69
41690;BME280;27372;42.658;23.256;2023-08-01T06:35:18;93507.28;;;26.49;52.88
41690;BME280;27372;42.658;23.256;2023-08-01T06:37:44;93505.03;;;26.67;51.46
41690;BME280;27372;42.658;23.256;2023-08-01T06:40:11;93496.16;;;26.50;46.58
41690;BME280;27372;42.658;23.256;2023-08-01T06:42:37;93500.78;;;26.50;51.70
41690;BME280;27372;42.658;23.256;2023-08-01T06:45:03;93502.16;;;26.03;52.34
41690;BME280;27372;42.658;23.256;2023-08-01T06:47:28;93504.53;;;26.33;48.15
41690;BME280;27372;42.658;23.256;2023-08-01T06:49:54;93498.00;;;26.05;52.66
41690;BME280;27372;42.658;23.256;2023-08-01T06:52:19;93506.63;;;26.11;50.39
41690;BME280;27372;42.658;23.256;2023-08-01T06:54:44;93506.47;;;25.30;47.96
41690;BME280;27372;42.658;23.256;2023-08-01T06:57:10;93500.19;;;25.38;50.36
41690;BME280;27372;42.658;23.256;2023-08-01T06:59:35;93498.06;;;25.06;52.73
41690;BME280;27372;42.658;23.256;2023-08-01T07:02:00;93497.19;;;25.27;52.94
41690;BME280;27372;42.658;23.256;2023-08-01T07:04:26;93497.44;;;25.47;48.62
41690;BME280;27372;42.658;23.256;2023-08-01T07:06:51;93492.69;;;25.31;49.38
41690;BME280;27372;42.658;23.256;2023-08-01T07:09:17;93495.47;;;25.10;52.85
41690;BME280;27372;42.658;23.256;2023-08-01T07:11:42;93498.97;;;25.23;52.17
41690;BME280;27372;42.658;23.256;2023-08-01T07:14:07;93502.66;;;25.18;54.01
41690;BME280;27372;42.658;23.256;2023-08-01T07:16:33;93494.38;;;25.73;52.78
41690;BME280;27372;42.658;23.256;2023-08-01T07:19:01;93493.53;;;26.10;50.87
41690;BME280;27372;42.658;23.256;2023-08-01T07:21:27;93494.41;;;26.42;51.04
41690;BME280;27372;42.658;23.256;2023-08-01T07:23:54;93488.88;;;26.67;50.25
41690;BME280;27372;42.658;23.256;2023-08-01T07:26:19;93483.88;;;26.65;48.04
41690;BME280;27372;42.658;23.256;2023-08-01T07:28:47;93479.09;;;26.75;50.30
41690;BME280;27372;42.658;23.256;2023-08-01T07:31:15;93481.13;;;26.78;46.53
41690;BME280;27372;42.658;23.256;2023-08-01T07:33:43;93477.78;;;25.71;50.27
41690;BME280;27372;42.658;23.256;2023-08-01T07:36:08;93476.41;;;25.89;53.00
41690;BME280;27372;42.658;23.256;2023-08-01T07:38:39;93479.31;;;25.84;51.79
41690;BME280;27372;42.658;23.256;2023-08-01T07:41:08;93478.47;;;26.09;52.28
41690;BME280;27372;42.658;23.256;2023-08-01T07:43:33;93481.81;;;26.46;50.67
41690;BME280;27372;42.658;23.256;2023-08-01T07:45:59;93479.53;;;26.77;49.09
41690;BME280;27372;42.658;23.256;2023-08-01T07:48:25;93475.94;;;26.57;49.84
41690;BME280;27372;42.658;23.256;2023-08-01T07:50:53;93483.19;;;26.40;49.27
41690;BME280;27372;42.658;23.256;2023-08-01T07:53:22;93481.50;;;26.48;49.12
41690;BME280;27372;42.658;23.256;2023-08-01T07:55:47;93481.84;;;26.62;49.73
41690;BME280;27372;42.658;23.256;2023-08-01T07:58:13;93480.03;;;26.66;50.29
41690;BME280;27372;42.658;23.256;2023-08-01T08:00:42;93477.06;;;27.00;51.51
41690;BME280;27372;42.658;23.256;2023-08-01T08:03:07;93476.69;;;27.02;49.39
41690;BME280;27372;42.658;23.256;2023-08-01T08:05:33;93461.19;;;26.66;46.50
41690;BME280;27372;42.658;23.256;2023-08-01T08:08:01;93466.66;;;26.70;50.10
41690;BME280;27372;42.658;23.256;2023-08-01T08:10:27;93465.16;;;27.01;49.68
41690;BME280;27372;42.658;23.256;2023-08-01T08:12:55;93467.22;;;27.24;48.36
41690;BME280;27372;42.658;23.256;2023-08-01T08:15:20;93462.16;;;27.38;49.34
41690;BME280;27372;42.658;23.256;2023-08-01T08:17:48;93459.94;;;27.76;48.20
41690;BME280;27372;42.658;23.256;2023-08-01T08:20:17;93453.81;;;27.59;48.30
41690;BME280;27372;42.658;23.256;2023-08-01T08:22:54;93449.00;;;27.69;47.56
41690;BME280;27372;42.658;23.256;2023-08-01T08:25:20;93452.78;;;27.32;47.42
41690;BME280;27372;42.658;23.256;2023-08-01T08:27:45;93453.50;;;28.00;47.43
41690;BME280;27372;42.658;23.256;2023-08-01T08:30:20;93449.22;;;27.99;46.99
41690;BME280;27372;42.658;23.256;2023-08-01T08:32:46;93442.22;;;28.14;45.24
41690;BME280;27372;42.658;23.256;2023-08-01T08:35:32;93445.81;;;28.02;45.05
41690;BME280;27372;42.658;23.256;2023-08-01T08:38:00;93442.97;;;28.11;46.82
41690;BME280;27372;42.658;23.256;2023-08-01T08:40:26;93440.91;;;28.47;44.67
41690;BME280;27372;42.658;23.256;2023-08-01T08:42:52;93438.19;;;28.67;45.52
41690;BME280;27372;42.658;23.256;2023-08-01T08:45:19;93431.03;;;28.12;43.26
41690;BME280;27372;42.658;23.256;2023-08-01T08:47:47;93432.34;;;28.02;45.33
41690;BME280;27372;42.658;23.256;2023-08-01T08:50:14;93432.91;;;28.31;45.91
41690;BME280;27372;42.658;23.256;2023-08-01T08:52:40;93426.59;;;28.24;43.46
41690;BME280;27372;42.658;23.256;2023-08-01T08:55:06;93429.31;;;27.68;44.37
41690;BME280;27372;42.658;23.256;2023-08-01T08:57:32;93430.53;;;27.51;46.81
41690;BME280;27372;42.658;23.256;2023-08-01T09:00:06;93428.31;;;27.93;45.23
41690;BME280;27372;42.658;23.256;2023-08-01T09:02:34;93420.34;;;28.00;44.91
41690;BME280;27372;42.658;23.256;2023-08-01T09:05:00;93422.63;;;28.17;49.16
41690;BME280;27372;42.658;23.256;2023-08-01T09:07:27;93420.56;;;28.11;45.00
41690;BME280;27372;42.658;23.256;2023-08-01T09:09:54;93412.16;;;28.78;44.95
41690;BME280;27372;42.658;23.256;2023-08-01T09:12:20;93415.97;;;29.01;45.10
41690;BME280;27372;42.658;23.256;2023-08-01T09:14:50;93416.13;;;29.08;44.86
41690;BME280;27372;42.658;23.256;2023-08-01T09:17:16;93409.66;;;29.39;44.39
41690;BME280;27372;42.658;23.256;2023-08-01T09:19:43;93407.19;;;29.57;44.56
41690;BME280;27372;42.658;23.256;2023-08-01T09:22:12;93406.81;;;29.89;40.50
41690;BME280;27372;42.658;23.256;2023-08-01T09:24:38;93402.91;;;29.87;41.77
41690;BME280;27372;42.658;23.256;2023-08-01T09:27:04;93401.31;;;30.13;41.36
41690;BME280;27372;42.658;23.256;2023-08-01T09:29:29;93398.56;;;29.79;41.27
41690;BME280;27372;42.658;23.256;2023-08-01T09:31:56;93396.19;;;29.73;41.21
41690;BME280;27372;42.658;23.256;2023-08-01T09:34:23;93398.09;;;30.37;40.51
41690;BME280;27372;42.658;23.256;2023-08-01T09:36:49;93394.69;;;30.48;39.41
41690;BME280;27372;42.658;23.256;2023-08-01T09:39:18;93392.81;;;30.93;38.58
41690;BME280;27372;42.658;23.256;2023-08-01T09:41:44;93393.00;;;29.95;40.04
41690;BME280;27372;42.658;23.256;2023-08-01T09:44:11;93398.66;;;30.95;38.60
41690;BME280;27372;42.658;23.256;2023-08-01T09:46:37;93391.19;;;30.06;38.97
41690;BME280;27372;42.658;23.256;2023-08-01T09:49:08;93381.00;;;30.30;39.40
41690;BME280;27372;42.658;23.256;2023-08-01T09:51:45;93384.41;;;30.57;38.93
41690;BME280;27372;42.658;23.256;2023-08-01T09:54:11;93378.66;;;31.14;37.89
41690;BME280;27372;42.658;23.256;2023-08-01T09:56:36;93377.19;;;31.24;37.65
41690;BME280;27372;42.658;23.256;2023-08-01T09:59:02;93379.38;;;31.08;37.04
41690;BME280;27372;42.658;23.256;2023-08-01T10:01:27;93365.75;;;31.56;36.40
41690;BME280;27372;42.658;23.256;2023-08-01T10:03:53;93361.06;;;31.46;35.96
41690;BME280;27372;42.658;23.256;2023-08-01T10:06:22;93354.72;;;31.98;34.61
41690;BME280;27372;42.658;23.256;2023-08-01T10:08:49;93349.78;;;32.29;33.78
41690;BME280;27372;42.658;23.256;2023-08-01T10:11:16;93347.38;;;32.20;32.85
41690;BME280;27372;42.658;23.256;2023-08-01T10:13:42;93346.28;;;32.35;34.34
41690;BME280;27372;42.658;23.256;2023-08-01T10:16:08;93351.75;;;32.75;34.09
41690;BME280;27372;42.658;23.256;2023-08-01T10:18:34;93348.22;;;32.28;34.84
41690;BME280;27372;42.658;23.256;2023-08-01T10:21:06;93339.72;;;32.40;34.08
41690;BME280;27372;42.658;23.256;2023-08-01T10:23:32;93338.13;;;32.28;33.73
41690;BME280;27372;42.658;23.256;2023-08-01T10:25:58;93336.25;;;32.87;32.36
41690;BME280;27372;42.658;23.256;2023-08-01T10:28:30;93343.22;;;33.13;32.32
41690;BME280;27372;42.658;23.256;2023-08-01T10:31:05;93331.97;;;32.78;32.67
41690;BME280;27372;42.658;23.256;2023-08-01T10:33:34;93332.34;;;32.66;31.65
41690;BME280;27372;42.658;23.256;2023-08-01T10:36:00;93317.88;;;32.04;34.67
41690;BME280;27372;42.658;23.256;2023-08-01T10:38:25;93323.41;;;32.87;31.90
41690;BME280;27372;42.658;23.256;2023-08-01T10:40:51;93320.31;;;32.74;30.66
41690;BME280;27372;42.658;23.256;2023-08-01T10:43:20;93330.78;;;32.32;29.08
41690;BME280;27372;42.658;23.256;2023-08-01T10:45:48;93308.56;;;32.01;29.35
41690;BME280;27372;42.658;23.256;2023-08-01T10:48:25;93309.00;;;31.19;30.05
41690;BME280;27372;42.658;23.256;2023-08-01T10:50:56;93309.81;;;31.26;29.67
41690;BME280;27372;42.658;23.256;2023-08-01T10:53:22;93318.47;;;31.57;29.13
41690;BME280;27372;42.658;23.256;2023-08-01T10:55:48;93292.44;;;31.38;28.71
41690;BME280;27372;42.658;23.256;2023-08-01T10:58:14;93315.81;;;30.98;28.74
41690;BME280;27372;42.658;23.256;2023-08-01T11:00:39;93301.03;;;30.43;30.34
41690;BME280;27372;42.658;23.256;2023-08-01T11:03:08;93295.69;;;31.03;29.17
41690;BME280;27372;42.658;23.256;2023-08-01T11:05:33;93300.31;;;30.50;28.69
41690;BME280;27372;42.658;23.256;2023-08-01T11:08:00;93278.56;;;30.88;28.74
41690;BME280;27372;42.658;23.256;2023-08-01T11:10:26;93287.13;;;30.90;29.72
41690;BME280;27372;42.658;23.256;2023-08-01T11:12:52;93289.13;;;30.51;29.35
41690;BME280;27372;42.658;23.256;2023-08-01T11:15:18;93270.63;;;30.57;29.61
41690;BME280;27372;42.658;23.256;2023-08-01T11:17:48;93282.88;;;30.96;29.33
41690;BME280;27372;42.658;23.256;2023-08-01T11:20:14;93264.03;;;30.58;29.15
41690;BME280;27372;42.658;23.256;2023-08-01T11:23:01;93277.81;;;30.87;28.67
41690;BME280;27372;42.658;23.256;2023-08-01T11:25:33;93245.91;;;31.29;26.77
41690;BME280;27372;42.658;23.256;2023-08-01T11:28:05;93263.75;;;31.37;27.72
41690;BME280;27372;42.658;23.256;2023-08-01T11:30:32;93256.59;;;31.92;26.52
41690;BME280;27372;42.658;23.256;2023-08-01T11:33:00;93257.34;;;31.78;27.21
41690;BME280;27372;42.658;23.256;2023-08-01T11:35:28;93257.41;;;32.07;27.09
41690;BME280;27372;42.658;23.256;2023-08-01T11:37:53;93241.88;;;32.00;28.47
41690;BME280;27372;42.658;23.256;2023-08-01T11:40:18;93255.03;;;31.91;27.13
41690;BME280;27372;42.658;23.256;2023-08-01T11:42:48;93244.81;;;31.48;28.82
41690;BME280;27372;42.658;23.256;2023-08-01T11:45:13;93256.19;;;31.83;27.99
41690;BME280;27372;42.658;23.256;2023-08-01T11:47:46;93251.97;;;32.00;27.19
41690;BME280;27372;42.658;23.256;2023-08-01T11:50:11;93254.28;;;32.01;28.35
41690;BME280;27372;42.658;23.256;2023-08-01T11:52:37;93249.28;;;32.76;26.80
41690;BME280;27372;42.658;23.256;2023-08-01T11:55:02;93238.63;;;33.47;26.13
41690;BME280;27372;42.658;23.256;2023-08-01T11:57:28;93237.13;;;33.35;25.67
41690;BME280;27372;42.658;23.256;2023-08-01T11:59:54;93237.94;;;34.06;25.00
41690;BME280;27372;42.658;23.256;2023-08-01T12:02:29;93231.66;;;34.16;23.22
41690;BME280;27372;42.658;23.256;2023-08-01T12:04:57;93226.22;;;34.13;22.75
41690;BME280;27372;42.658;23.256;2023-08-01T12:07:26;93219.97;;;33.45;24.23
41690;BME280;27372;42.658;23.256;2023-08-01T12:09:58;93219.28;;;33.16;24.61
41690;BME280;27372;42.658;23.256;2023-08-01T12:12:25;93221.72;;;32.41;24.63
41690;BME280;27372;42.658;23.256;2023-08-01T12:14:51;93218.56;;;33.01;25.69
41690;BME280;27372;42.658;23.256;2023-08-01T12:17:18;93217.88;;;32.49;25.22
41690;BME280;27372;42.658;23.256;2023-08-01T12:19:43;93204.56;;;31.54;25.46
41690;BME280;27372;42.658;23.256;2023-08-01T12:22:08;93205.44;;;32.34;25.26
41690;BME280;27372;42.658;23.256;2023-08-01T12:24:34;93213.09;;;31.67;26.14
41690;BME280;27372;42.658;23.256;2023-08-01T12:27:02;93213.56;;;32.12;24.62
41690;BME280;27372;42.658;23.256;2023-08-01T12:29:27;93205.03;;;31.92;25.10
41690;BME280;27372;42.658;23.256;2023-08-01T12:31:52;93198.06;;;32.52;24.83
41690;BME280;27372;42.658;23.256;2023-08-01T12:34:18;93195.97;;;33.22;24.22
41690;BME280;27372;42.658;23.256;2023-08-01T12:36:43;93195.75;;;33.72;23.87
41690;BME280;27372;42.658;23.256;2023-08-01T12:39:08;93190.03;;;34.12;23.30
41690;BME280;27372;42.658;23.256;2023-08-01T12:41:36;93193.66;;;33.13;23.65
41690;BME280;27372;42.658;23.256;2023-08-01T12:44:01;93183.31;;;32.21;25.04
41690;BME280;27372;42.658;23.256;2023-08-01T12:46:27;93204.63;;;31.97;23.90